Pagina principală
METAR-TAF:

METAR-TAF

Aeroporturi :

Iguaçu, Argentina

Latitudine: 25-44S, longitudine: 054-28W, elevație: 270 m

Observații meteo curente

Raportul a fost făcut în urmă cu 50 de minute, la 11:00 UTC
Vânt calm
Temperatură 9°C
Umiditate 93%
Presiune 1025 hPa
Vizibilitate de 10 km sau mai mult
Nori fragmentați la o înălțime de 2700 picior

METAR: SARI 281100Z 00000KT 9999 BKN027 09/08 Q1025

Ora: 08:50 (11:50 UTC)

Prognoză

Raportul a fost făcut în urmă cu 6 ore și 50 de minute, la 05:00 UTC
Prognoză valabilă de la 28 ora 06 UTC la 29 ora 06 UTC
Vânt 2 kt din direcții variabile
Vizibilitate de 10 km sau mai mult
Total acoperit la o înălțime de 3500 picior
Devenind
de la 28 ora 13 UTC la 28 ora 15 UTC
Vizibilitate de 10 km sau mai mult
Nori împrăștiați la o înălțime de 2500 picior

TAF: SARI 280500Z 2806/2906 VRB02KT 9999 OVC035 TX18/2819Z TN08/2810Z BECMG 2813/2815 9999 SCT025

Observații și prognoze meteo pentru peste 4.000 de aeroporturi (rapoarte METAR și TAF).

Stațiile disponibile sunt reprezentate pe hartă prin puncte galbene și roșii.

Țineți indicatorul mouse-ului pe punctul dorit pentru a vedea denumirea stației.

Apoi, faceți clic pentru a vedea observațiile și prognozele meteorologice.

Pentru a schimba harta: Pentru mărire, faceți clic pe butoanele verzi cu cruce neagră; pentru micșorare, pe butonul verde cu o liniuță; pentru hărți învecinate, pe săgețile verzi.


METAR-TAF: